createdAt,value
2022-11-07T00:01:14.157Z,19.13
2022-11-07T00:03:40.472Z,22.73
2022-11-07T00:06:07.264Z,21.63
2022-11-07T00:08:33.503Z,23.50
2022-11-07T00:11:01.752Z,23.57
2022-11-07T00:13:28.563Z,19.23
2022-11-07T00:16:02.872Z,21.73
2022-11-07T00:18:29.842Z,22.33
2022-11-07T00:21:00.682Z,18.43
2022-11-07T00:23:27.816Z,19.27
2022-11-07T00:25:54.585Z,26.40
2022-11-07T00:28:20.896Z,21.27
2022-11-07T00:30:47.471Z,16.57
2022-11-07T00:33:13.741Z,18.47
2022-11-07T00:35:41.727Z,22.13
2022-11-07T00:38:07.884Z,19.63
2022-11-07T00:40:34.301Z,19.70
2022-11-07T00:43:00.401Z,20.63
2022-11-07T00:45:26.852Z,18.97
2022-11-07T00:47:53.966Z,19.13
2022-11-07T00:50:20.345Z,20.07
2022-11-07T00:52:46.440Z,21.53
2022-11-07T00:55:12.786Z,24.07
2022-11-07T00:57:38.905Z,17.87
2022-11-07T01:00:06.486Z,20.53
2022-11-07T01:02:32.630Z,18.90
2022-11-07T01:05:11.159Z,21.40
2022-11-07T01:07:40.407Z,18.53
2022-11-07T01:10:07.416Z,17.73
2022-11-07T01:12:34.988Z,19.30
2022-11-07T01:15:03.374Z,17.87
2022-11-07T01:17:29.490Z,22.27
2022-11-07T01:19:55.827Z,23.73
2022-11-07T01:22:21.913Z,20.77
2022-11-07T01:24:48.306Z,18.23
2022-11-07T01:27:14.374Z,19.50
2022-11-07T01:29:40.751Z,22.03
2022-11-07T01:32:06.897Z,21.60
2022-11-07T01:34:33.383Z,23.10
2022-11-07T01:36:59.535Z,22.53
2022-11-07T01:39:26.080Z,18.30
2022-11-07T01:41:52.252Z,18.17
2022-11-07T01:44:18.568Z,18.10
2022-11-07T01:46:47.050Z,18.47
2022-11-07T01:49:20.251Z,22.00
2022-11-07T01:52:07.884Z,23.90
2022-11-07T01:54:40.989Z,25.30
2022-11-07T01:57:13.388Z,17.73
2022-11-07T01:59:40.168Z,19.73
2022-11-07T02:02:08.666Z,21.33
2022-11-07T02:04:36.589Z,17.93
2022-11-07T02:07:02.880Z,20.00
2022-11-07T02:09:29.546Z,24.40
2022-11-07T02:12:00.159Z,21.03
2022-11-07T02:14:28.536Z,20.83
2022-11-07T02:16:55.138Z,21.90
2022-11-07T02:19:32.691Z,23.60
2022-11-07T02:22:10.679Z,21.47
2022-11-07T02:24:38.262Z,20.07
2022-11-07T02:27:12.349Z,24.50
2022-11-07T02:29:41.784Z,21.57
2022-11-07T02:32:10.705Z,22.47
2022-11-07T02:34:37.747Z,18.10
2022-11-07T02:37:11.373Z,19.53
2022-11-07T02:39:38.061Z,19.27
2022-11-07T02:42:05.744Z,17.80
2022-11-07T02:44:33.434Z,19.13
2022-11-07T02:46:59.527Z,19.20
2022-11-07T02:49:25.919Z,19.93
2022-11-07T02:51:52.026Z,17.67
2022-11-07T02:54:18.415Z,21.57
2022-11-07T02:56:48.180Z,18.50
2022-11-07T02:59:14.603Z,20.23
2022-11-07T03:01:40.920Z,18.93
2022-11-07T03:04:07.507Z,21.43
2022-11-07T03:06:33.606Z,17.47
2022-11-07T03:09:00.001Z,18.20
2022-11-07T03:11:26.106Z,18.33
2022-11-07T03:13:54.303Z,19.57
2022-11-07T03:16:20.378Z,21.70
2022-11-07T03:18:47.222Z,18.57
2022-11-07T03:21:13.584Z,16.23
2022-11-07T03:23:41.887Z,18.17
2022-11-07T03:26:08.092Z,20.43
2022-11-07T03:28:34.859Z,19.97
2022-11-07T03:31:03.310Z,23.67
2022-11-07T03:33:30.438Z,20.70
2022-11-07T03:35:56.765Z,25.27
2022-11-07T03:38:23.298Z,21.37
2022-11-07T03:40:49.351Z,20.90
2022-11-07T03:43:16.405Z,27.77
2022-11-07T03:45:42.706Z,20.30
2022-11-07T03:48:09.102Z,22.07
2022-11-07T03:50:35.462Z,19.30
2022-11-07T03:53:01.827Z,21.07
2022-11-07T03:55:27.942Z,20.20
2022-11-07T03:57:54.400Z,27.50
2022-11-07T04:00:20.569Z,23.37
2022-11-07T04:02:47.222Z,24.87
2022-11-07T04:05:13.418Z,23.10
2022-11-07T04:07:39.816Z,21.90
2022-11-07T04:10:06.363Z,23.10
2022-11-07T04:12:52.405Z,23.87
2022-11-07T04:15:38.033Z,27.43
2022-11-07T04:18:04.534Z,28.50
2022-11-07T04:20:31.037Z,24.37
2022-11-07T04:22:57.643Z,22.77
2022-11-07T04:25:44.633Z,23.20
2022-11-07T04:28:11.137Z,28.70
2022-11-07T04:30:37.388Z,23.47
2022-11-07T04:33:04.086Z,22.17
2022-11-07T04:35:32.538Z,24.37
2022-11-07T04:38:00.382Z,24.13
2022-11-07T04:40:27.928Z,24.33
2022-11-07T04:42:54.893Z,27.50
2022-11-07T04:45:21.267Z,23.23
2022-11-07T04:47:48.111Z,18.70
2022-11-07T04:50:17.190Z,23.13
2022-11-07T04:52:45.099Z,19.87
2022-11-07T04:55:18.752Z,24.03
2022-11-07T04:57:45.246Z,25.67
2022-11-07T05:00:12.111Z,21.53
2022-11-07T05:02:38.625Z,22.27
2022-11-07T05:05:05.452Z,21.67
2022-11-07T05:07:31.920Z,27.37
2022-11-07T05:09:58.055Z,23.13
2022-11-07T05:12:24.507Z,28.90
2022-11-07T05:14:50.672Z,22.17
2022-11-07T05:17:17.433Z,27.10
2022-11-07T05:19:43.590Z,21.77
2022-11-07T05:22:29.331Z,24.57
2022-11-07T05:24:55.472Z,25.20
2022-11-07T05:27:22.493Z,25.67
2022-11-07T05:29:48.619Z,25.03
2022-11-07T05:32:16.689Z,30.07
2022-11-07T05:34:43.533Z,28.57
2022-11-07T05:37:11.265Z,31.40
2022-11-07T05:39:37.888Z,29.47
2022-11-07T05:42:04.564Z,30.67
2022-11-07T05:44:30.975Z,26.40
2022-11-07T05:46:57.800Z,24.40
2022-11-07T05:49:24.876Z,25.33
2022-11-07T05:51:52.194Z,28.87
2022-11-07T05:54:18.572Z,27.30
2022-11-07T05:56:45.120Z,21.63
2022-11-07T05:59:12.079Z,30.87
2022-11-07T06:01:38.868Z,21.80
2022-11-07T06:04:08.822Z,24.90
2022-11-07T06:06:35.333Z,22.67
2022-11-07T06:09:01.455Z,24.73
2022-11-07T06:11:28.103Z,26.03
2022-11-07T06:13:54.370Z,23.47
2022-11-07T06:16:21.353Z,34.63
2022-11-07T06:18:47.868Z,27.60
2022-11-07T06:21:15.614Z,25.90
2022-11-07T06:23:42.331Z,35.57
2022-11-07T06:26:09.287Z,27.80
2022-11-07T06:28:35.528Z,29.87
2022-11-07T06:31:04.517Z,28.80
2022-11-07T06:33:32.250Z,29.67
2022-11-07T06:36:11.193Z,32.87
2022-11-07T06:38:40.601Z,32.43
2022-11-07T06:41:09.841Z,24.57
2022-11-07T06:43:36.725Z,26.77
2022-11-07T06:46:11.789Z,30.77
2022-11-07T06:48:38.274Z,30.73
2022-11-07T06:51:06.993Z,28.20
2022-11-07T06:53:33.698Z,31.13
2022-11-07T06:56:01.847Z,27.20
2022-11-07T06:58:28.366Z,30.20
2022-11-07T07:01:03.093Z,27.23
2022-11-07T07:03:29.719Z,25.20
2022-11-07T07:06:04.457Z,26.50
2022-11-07T07:08:31.575Z,21.53
2022-11-07T07:11:03.153Z,24.20
2022-11-07T07:13:29.543Z,24.13
2022-11-07T07:15:57.583Z,22.87
2022-11-07T07:18:25.016Z,20.57
2022-11-07T07:20:54.938Z,21.67
2022-11-07T07:23:21.588Z,25.20
2022-11-07T07:25:48.728Z,22.43
2022-11-07T07:28:14.946Z,21.00
2022-11-07T07:30:41.415Z,22.60
2022-11-07T07:33:07.562Z,23.27
2022-11-07T07:35:34.430Z,20.47
2022-11-07T07:38:00.910Z,19.00
2022-11-07T07:40:27.797Z,17.13
2022-11-07T07:42:54.357Z,16.93
2022-11-07T07:45:21.022Z,17.90
2022-11-07T07:47:47.692Z,12.70
2022-11-07T07:50:14.711Z,11.73
2022-11-07T07:52:41.155Z,14.90
2022-11-07T07:55:09.681Z,12.53
2022-11-07T07:57:43.023Z,13.70
2022-11-07T08:00:11.450Z,13.23
2022-11-07T08:02:43.953Z,10.47
2022-11-07T08:05:12.661Z,8.90
2022-11-07T08:07:46.239Z,10.33
2022-11-07T08:10:39.417Z,10.30
2022-11-07T08:13:00.523Z,8.63
2022-11-07T08:15:27.241Z,8.37
2022-11-07T08:17:53.429Z,8.77
2022-11-07T08:20:20.229Z,10.97
2022-11-07T08:22:46.713Z,10.07
2022-11-07T08:25:15.562Z,9.20
2022-11-07T08:27:42.392Z,10.03
2022-11-07T08:30:15.131Z,9.20
2022-11-07T08:32:44.502Z,7.30
2022-11-07T08:35:11.058Z,8.23
2022-11-07T08:37:37.528Z,11.33
2022-11-07T08:40:04.667Z,8.87
2022-11-07T08:42:31.423Z,6.33
2022-11-07T08:44:58.016Z,8.37
2022-11-07T08:47:24.790Z,7.57
2022-11-07T08:49:52.465Z,8.63
2022-11-07T08:52:19.889Z,9.13
2022-11-07T08:54:46.589Z,8.00
2022-11-07T08:57:12.941Z,10.17
2022-11-07T08:59:39.404Z,6.87
2022-11-07T09:04:52.847Z,11.90
2022-11-07T09:07:19.724Z,8.97
2022-11-07T09:09:48.612Z,12.37
2022-11-07T09:12:15.138Z,8.23
2022-11-07T09:14:41.811Z,9.20
2022-11-07T09:17:09.025Z,6.90
2022-11-07T09:19:35.816Z,7.87
2022-11-07T09:22:02.358Z,7.63
2022-11-07T09:24:29.765Z,6.53
2022-11-07T09:26:56.341Z,7.13
2022-11-07T09:29:23.173Z,6.03
2022-11-07T09:31:50.382Z,9.37
2022-11-07T09:34:17.174Z,6.57
2022-11-07T09:36:43.354Z,5.83
2022-11-07T09:39:10.071Z,8.73
2022-11-07T09:41:42.636Z,8.83
2022-11-07T09:44:17.323Z,9.73
2022-11-07T09:47:01.293Z,7.13
2022-11-07T09:49:38.439Z,7.07
2022-11-07T09:52:20.371Z,6.47
2022-11-07T09:54:56.057Z,6.47
2022-11-07T09:57:23.204Z,7.37
2022-11-07T09:59:55.020Z,6.47
2022-11-07T10:02:25.511Z,8.27
2022-11-07T10:04:57.464Z,6.40
2022-11-07T10:07:38.585Z,7.27
2022-11-07T10:10:47.206Z,7.20
2022-11-07T10:13:43.079Z,8.20
2022-11-07T10:16:20.156Z,7.80
2022-11-07T10:19:25.877Z,6.70
2022-11-07T10:22:01.751Z,7.23
2022-11-07T10:25:05.323Z,8.30
2022-11-07T10:27:33.268Z,6.50
2022-11-07T10:30:00.758Z,6.63
2022-11-07T10:32:53.251Z,7.70
2022-11-07T10:35:33.743Z,5.27
2022-11-07T10:38:14.097Z,7.17
2022-11-07T10:40:41.764Z,8.27
2022-11-07T10:43:19.247Z,7.13
2022-11-07T10:45:46.999Z,6.00
2022-11-07T10:48:14.580Z,5.60
2022-11-07T10:50:54.127Z,5.67
2022-11-07T10:53:23.417Z,6.63
2022-11-07T10:55:51.284Z,7.00
2022-11-07T10:58:22.848Z,6.90
2022-11-07T11:01:08.032Z,5.03
2022-11-07T11:03:45.115Z,4.73
2022-11-07T11:06:17.915Z,8.17
2022-11-07T11:08:46.710Z,4.97
2022-11-07T11:11:33.892Z,5.57
2022-11-07T11:14:12.599Z,6.10
2022-11-07T11:16:41.463Z,7.80
2022-11-07T11:19:22.715Z,7.87
2022-11-07T11:21:51.531Z,7.37
2022-11-07T11:24:32.473Z,6.70
2022-11-07T11:27:04.095Z,6.23
2022-11-07T11:30:06.533Z,7.87
2022-11-07T11:32:47.796Z,5.87
2022-11-07T11:35:24.340Z,5.70
2022-11-07T11:37:58.311Z,6.13
2022-11-07T11:40:24.971Z,6.73
2022-11-07T11:43:04.825Z,7.17
2022-11-07T11:45:43.941Z,7.53
2022-11-07T11:48:16.213Z,7.63
2022-11-07T11:50:47.619Z,6.63
2022-11-07T11:53:17.799Z,7.00
2022-11-07T11:55:56.717Z,6.30
2022-11-07T11:58:31.300Z,11.77
2022-11-07T12:01:07.333Z,8.27
2022-11-07T12:04:08.097Z,8.87
2022-11-07T12:06:39.378Z,9.53
2022-11-07T12:09:52.104Z,7.10
2022-11-07T12:12:28.255Z,11.17
2022-11-07T12:15:13.271Z,5.47
2022-11-07T12:17:52.747Z,5.63
2022-11-07T12:20:33.308Z,7.93
2022-11-07T12:23:16.944Z,10.40
2022-11-07T12:26:10.221Z,5.33
2022-11-07T12:29:02.013Z,6.83
2022-11-07T12:31:46.879Z,6.80
2022-11-07T12:34:31.901Z,7.50
2022-11-07T12:37:40.094Z,7.03
2022-11-07T12:40:34.359Z,5.10
2022-11-07T12:43:38.189Z,7.43
2022-11-07T12:46:14.191Z,6.60
2022-11-07T12:49:02.497Z,6.60
2022-11-07T12:51:38.385Z,8.20
2022-11-07T12:54:16.857Z,5.83
2022-11-07T12:56:46.645Z,5.47
2022-11-07T12:59:26.419Z,5.83
2022-11-07T13:02:06.005Z,5.67
2022-11-07T13:04:38.199Z,5.70
2022-11-07T13:07:34.379Z,6.53
2022-11-07T13:10:16.617Z,5.40
2022-11-07T13:13:05.138Z,10.37
2022-11-07T13:15:47.470Z,6.73
2022-11-07T13:18:28.023Z,5.20
2022-11-07T13:21:02.850Z,6.37
2022-11-07T13:23:29.875Z,4.57
2022-11-07T13:26:25.927Z,5.53
2022-11-07T13:28:58.052Z,6.97
2022-11-07T13:31:45.421Z,6.87
2022-11-07T13:34:18.353Z,7.67
2022-11-07T13:36:50.163Z,7.90
2022-11-07T13:39:17.996Z,5.90
2022-11-07T13:41:47.576Z,6.20
2022-11-07T13:44:26.428Z,7.23
2022-11-07T13:46:55.907Z,6.90
2022-11-07T13:49:43.979Z,5.23
2022-11-07T13:52:29.018Z,5.20
2022-11-07T13:55:23.921Z,7.17
2022-11-07T13:57:55.786Z,8.13
2022-11-07T14:00:22.953Z,7.93
2022-11-07T14:02:58.178Z,7.47
2022-11-07T14:05:27.325Z,6.37
2022-11-07T14:08:00.077Z,6.33
2022-11-07T14:10:42.036Z,13.20
2022-11-07T14:13:11.511Z,11.30
2022-11-07T14:15:47.934Z,7.70
2022-11-07T14:18:18.965Z,10.07
2022-11-07T14:20:57.444Z,11.87
2022-11-07T14:23:26.755Z,10.67
2022-11-07T14:25:56.522Z,11.70
2022-11-07T14:28:23.048Z,9.40
2022-11-07T14:30:51.644Z,11.20
2022-11-07T14:33:21.227Z,11.23
2022-11-07T14:35:50.511Z,8.50
2022-11-07T14:38:27.301Z,9.20
2022-11-07T14:40:58.411Z,11.50
2022-11-07T14:43:26.410Z,9.10
2022-11-07T14:46:18.043Z,9.37
2022-11-07T14:48:46.866Z,8.03
2022-11-07T14:51:17.198Z,12.77
2022-11-07T14:53:49.839Z,6.57
2022-11-07T14:56:22.292Z,8.73
2022-11-07T14:58:48.817Z,8.77
2022-11-07T15:01:26.340Z,9.03
2022-11-07T15:03:59.769Z,9.80
2022-11-07T15:06:40.300Z,8.63
2022-11-07T15:09:08.598Z,8.00
2022-11-07T15:11:37.743Z,7.63
2022-11-07T15:14:20.083Z,8.03
2022-11-07T15:16:48.850Z,10.07
2022-11-07T15:19:19.235Z,8.90
2022-11-07T15:21:51.787Z,8.60
2022-11-07T15:24:43.831Z,8.67
2022-11-07T15:27:13.294Z,9.93
2022-11-07T15:29:49.673Z,9.97
2022-11-07T15:32:20.468Z,8.00
2022-11-07T15:35:37.781Z,9.93
2022-11-07T15:38:01.255Z,8.90
2022-11-07T15:40:29.430Z,13.20
2022-11-07T15:42:56.172Z,16.30
2022-11-07T15:45:23.168Z,15.27
2022-11-07T15:47:50.339Z,14.57
2022-11-07T15:50:19.533Z,20.70
2022-11-07T15:52:49.921Z,25.13
2022-11-07T15:55:18.404Z,20.97
2022-11-07T15:57:47.284Z,19.27
2022-11-07T16:00:19.108Z,21.43
2022-11-07T16:02:46.061Z,25.57
2022-11-07T16:05:13.656Z,26.60
2022-11-07T16:07:44.720Z,39.33
2022-11-07T16:10:21.825Z,42.50
2022-11-07T16:12:49.250Z,31.40
2022-11-07T16:15:17.557Z,16.33
2022-11-07T16:17:44.282Z,13.80
2022-11-07T16:20:15.580Z,12.43
2022-11-07T16:22:43.656Z,9.73
2022-11-07T16:25:22.042Z,10.27
2022-11-07T16:27:54.374Z,10.90
2022-11-07T16:30:21.490Z,12.13
2022-11-07T16:32:48.169Z,10.70
2022-11-07T16:35:14.669Z,13.83
2022-11-07T16:37:41.258Z,10.90
2022-11-07T16:40:12.892Z,14.97
2022-11-07T16:42:39.318Z,11.40
2022-11-07T16:45:06.252Z,13.47
2022-11-07T16:47:36.578Z,14.93
2022-11-07T16:50:03.771Z,17.07
2022-11-07T16:52:30.306Z,16.80
2022-11-07T16:54:56.793Z,15.17
2022-11-07T16:57:25.735Z,15.03
2022-11-07T16:59:52.032Z,14.50
2022-11-07T17:02:24.319Z,14.50
2022-11-07T17:04:52.777Z,13.63
2022-11-07T17:07:22.050Z,10.53
2022-11-07T17:09:48.999Z,19.13
2022-11-07T17:12:24.326Z,17.17
2022-11-07T17:14:50.704Z,12.97
2022-11-07T17:17:18.404Z,14.30
2022-11-07T17:19:45.127Z,14.43
2022-11-07T17:22:12.725Z,17.03
2022-11-07T17:24:39.696Z,58.63
2022-11-07T17:27:22.462Z,51.03
2022-11-07T17:29:50.009Z,44.67
2022-11-07T17:32:16.689Z,39.10
2022-11-07T17:34:43.020Z,31.20
2022-11-07T17:37:14.712Z,45.47
2022-11-07T17:39:45.361Z,65.97
2022-11-07T17:42:12.664Z,100.10
2022-11-07T17:44:39.554Z,54.83
2022-11-07T17:47:20.150Z,24.30
2022-11-07T17:49:46.364Z,15.93
2022-11-07T17:52:12.775Z,15.60
2022-11-07T17:54:38.916Z,24.57
2022-11-07T17:57:08.245Z,25.20
2022-11-07T17:59:34.394Z,20.83
2022-11-07T18:02:01.100Z,16.60
2022-11-07T18:04:27.414Z,18.53
2022-11-07T18:06:53.948Z,17.63
2022-11-07T18:09:20.172Z,21.20
2022-11-07T18:11:46.743Z,26.30
2022-11-07T18:14:13.523Z,37.53
2022-11-07T18:16:40.424Z,52.00
2022-11-07T18:19:06.714Z,30.07
2022-11-07T18:21:33.414Z,26.40
2022-11-07T18:23:59.858Z,23.60
2022-11-07T18:26:32.725Z,24.30
2022-11-07T18:29:05.278Z,19.97
2022-11-07T18:31:32.117Z,19.33
2022-11-07T18:34:00.831Z,18.73
2022-11-07T18:36:30.006Z,16.67
2022-11-07T18:39:01.156Z,14.10
2022-11-07T18:41:27.884Z,14.57
2022-11-07T18:43:54.381Z,18.37
2022-11-07T18:46:21.670Z,19.97
2022-11-07T18:48:48.436Z,21.33
2022-11-07T18:51:21.196Z,16.20
2022-11-07T18:53:48.547Z,18.87
2022-11-07T18:56:15.887Z,16.67
2022-11-07T18:58:42.755Z,20.67
2022-11-07T19:01:22.911Z,22.87
2022-11-07T19:03:51.863Z,28.17
2022-11-07T19:06:20.849Z,32.40
2022-11-07T19:08:47.708Z,40.87
2022-11-07T19:11:20.251Z,27.97
2022-11-07T19:13:47.029Z,38.97
2022-11-07T19:16:16.450Z,36.57
2022-11-07T19:18:49.119Z,29.93
2022-11-07T19:21:19.612Z,24.03
2022-11-07T19:23:47.321Z,28.70
2022-11-07T19:26:14.193Z,21.30
2022-11-07T19:28:40.436Z,24.20
2022-11-07T19:31:12.076Z,21.27
2022-11-07T19:33:42.526Z,18.30
2022-11-07T19:36:15.856Z,18.97
2022-11-07T19:38:42.710Z,22.13
2022-11-07T19:41:10.547Z,18.63
2022-11-07T19:43:38.197Z,14.63
2022-11-07T19:46:07.986Z,13.70
2022-11-07T19:48:34.482Z,15.83
2022-11-07T19:51:06.034Z,12.30
2022-11-07T19:53:32.363Z,14.77
2022-11-07T19:56:06.353Z,12.57
2022-11-07T19:58:35.446Z,24.10
2022-11-07T20:01:09.286Z,18.07
2022-11-07T20:03:35.616Z,20.87
2022-11-07T20:06:02.078Z,23.00
2022-11-07T20:08:28.357Z,19.10
2022-11-07T20:10:54.797Z,22.80
2022-11-07T20:13:21.058Z,20.83
2022-11-07T20:15:47.791Z,24.90
2022-11-07T20:18:14.026Z,24.70
2022-11-07T20:20:40.945Z,22.43
2022-11-07T20:23:07.356Z,21.80
2022-11-07T20:25:33.813Z,23.70
2022-11-07T20:28:00.519Z,21.50
2022-11-07T20:30:27.518Z,16.17
2022-11-07T20:32:53.945Z,18.53
2022-11-07T20:35:20.509Z,18.73
2022-11-07T20:37:46.925Z,18.17
2022-11-07T20:40:13.940Z,21.10
2022-11-07T20:42:40.239Z,18.70
2022-11-07T20:45:07.257Z,16.50
2022-11-07T20:47:33.903Z,15.00
2022-11-07T20:50:00.534Z,17.47
2022-11-07T20:52:26.782Z,15.47
2022-11-07T20:54:53.246Z,14.10
2022-11-07T20:57:19.678Z,14.43
2022-11-07T20:59:46.265Z,14.47
2022-11-07T21:02:13.335Z,16.27
2022-11-07T21:04:56.182Z,16.93
2022-11-07T21:07:26.397Z,16.97
2022-11-07T21:09:53.924Z,14.37
2022-11-07T21:12:20.164Z,13.27
2022-11-07T21:14:46.756Z,17.13
2022-11-07T21:17:15.430Z,14.27
2022-11-07T21:19:42.158Z,16.17
2022-11-07T21:22:08.559Z,16.87
2022-11-07T21:24:35.368Z,15.87
2022-11-07T21:27:01.661Z,13.70
2022-11-07T21:29:29.781Z,18.23
2022-11-07T21:31:57.089Z,15.87
2022-11-07T21:34:24.186Z,13.97
2022-11-07T21:36:50.596Z,15.10
2022-11-07T21:39:17.303Z,19.17
2022-11-07T21:41:43.476Z,14.50
2022-11-07T21:44:11.460Z,14.63
2022-11-07T21:46:37.659Z,20.13
2022-11-07T21:49:05.376Z,16.50
2022-11-07T21:51:33.935Z,19.50
2022-11-07T21:54:24.072Z,13.57
2022-11-07T21:56:50.295Z,20.63
2022-11-07T21:59:18.841Z,17.80
2022-11-07T22:01:47.804Z,12.17
2022-11-07T22:04:15.171Z,15.10
2022-11-07T22:06:44.059Z,17.07
2022-11-07T22:09:15.585Z,16.87
2022-11-07T22:11:42.334Z,13.70
2022-11-07T22:14:14.150Z,13.63
2022-11-07T22:16:40.662Z,14.87
2022-11-07T22:19:12.012Z,13.70
2022-11-07T22:21:39.506Z,14.43
2022-11-07T22:24:06.281Z,14.53
2022-11-07T22:26:35.383Z,13.43
2022-11-07T22:29:02.141Z,12.90
2022-11-07T22:31:29.996Z,13.70
2022-11-07T22:33:57.910Z,18.33
2022-11-07T22:36:24.478Z,16.63
2022-11-07T22:38:51.049Z,17.50
2022-11-07T22:41:22.170Z,20.00
2022-11-07T22:43:49.524Z,20.37
2022-11-07T22:46:21.491Z,20.77
2022-11-07T22:48:48.921Z,18.43
2022-11-07T22:51:21.193Z,16.23
2022-11-07T22:53:53.959Z,16.97
2022-11-07T22:56:20.196Z,15.77
2022-11-07T22:58:46.754Z,15.30
2022-11-07T23:01:20.189Z,18.00
2022-11-07T23:03:47.826Z,15.50
2022-11-07T23:06:15.055Z,14.40
2022-11-07T23:08:41.607Z,16.87
2022-11-07T23:14:05.318Z,16.60
2022-11-07T23:16:34.636Z,15.43
2022-11-07T23:19:03.563Z,15.43
2022-11-07T23:21:29.877Z,17.17
2022-11-07T23:23:57.631Z,10.13
2022-11-07T23:26:24.973Z,10.87
2022-11-07T23:28:51.836Z,14.67
2022-11-07T23:31:19.179Z,12.53
2022-11-07T23:33:45.592Z,12.43
2022-11-07T23:36:14.014Z,19.07
2022-11-07T23:38:41.833Z,11.30
2022-11-07T23:41:10.852Z,11.93
2022-11-07T23:43:37.397Z,13.07
2022-11-07T23:46:23.188Z,12.57
2022-11-07T23:49:14.184Z,13.03
2022-11-07T23:51:41.404Z,10.17
2022-11-07T23:54:27.230Z,15.03
2022-11-07T23:56:53.586Z,11.00
2022-11-07T23:59:38.809Z,14.37
